This is the latest recevied weather packets stored in our database for station/object KLIT. If no packets are shown the sender has not sent any weather packets the latest 1 day(s).
| Time | Temp. | Humidity | Pressure | Rain* | Wind** | Luminosity | Snow |
|---|---|---|---|---|---|---|---|
| 1778057616 | 11.67° C | 93% | 1009.1 hPa | - | - | - | - |
| 1778057018 | 11.67° C | 93% | 1009.1 hPa | - | - | - | - |
| 1778055812 | 11.67° C | 93% | 1009.1 hPa | - | - | - | - |
| 1778055211 | 11.67° C | 93% | 1009.1 hPa | - | - | - | - |
| 1778054612 | 11.67° C | 93% | 1009.1 hPa | - | - | - | - |
| 1778054010 | 12.78° C | 100% | 1009.1 hPa | - | - | - | - |
| 1778053414 | 12.78° C | 100% | 1009.1 hPa | - | - | - | - |
| 1778052213 | 12.78° C | 100% | 1009.1 hPa | - | - | - | - |
| 1778051614 | 15° C | 93% | 1008.1 hPa | - | - | - | - |
| 1778051014 | 15° C | 93% | 1008.1 hPa | - | - | - | - |
| 1778049811 | 15.56° C | 87% | 1007.8 hPa | - | - | - | - |
| 1778049218 | 16.67° C | 93% | 1008.1 hPa | - | - | - | - |
| 1778048011 | 21.67° C | 94% | 1006.1 hPa | - | - | - | - |
| 1778047416 | 21.67° C | 94% | 1006.1 hPa | - | - | - | - |
| 1778046813 | 20.56° C | 100% | 1006.1 hPa | - | - | - | - |
| 1778045012 | 20.56° C | 100% | 1006.1 hPa | - | - | - | - |
| 1778044412 | 20.56° C | 100% | 1006.1 hPa | - | - | - | - |
| 1778042614 | 20.56° C | 94% | 1006.4 hPa | - | - | - | - |
| 1778042013 | 20.56° C | 94% | 1006.4 hPa | - | - | - | - |
| 1778040815 | 20.56° C | 94% | 1006.4 hPa | - | - | - | - |
| 1778040333 | 20.56° C | 94% | 1006.4 hPa | - | - | - | - |
| 1778039018 | 21.67° C | 88% | 1006.4 hPa | - | - | - | - |
| 1778038417 | 21.67° C | 88% | 1006.4 hPa | - | - | - | - |
| 1778037212 | 21.67° C | 88% | 1006.4 hPa | - | - | - | - |
| 1778036610 | 21.67° C | 88% | 1006.4 hPa | - | - | - | - |
* Rain since midnight (hover to see other rain measurements)
** Current wind speed in m/s (hover to see current wind gust speed)